createdAt,value
2018-03-24T00:01:20.606Z,90.18
2018-03-24T00:03:48.186Z,88.97
2018-03-24T00:06:15.807Z,89.20
2018-03-24T00:08:43.537Z,89.27
2018-03-24T00:11:11.118Z,90.43
2018-03-24T00:13:38.735Z,90.29
2018-03-24T00:16:06.314Z,90.35
2018-03-24T00:18:33.899Z,90.54
2018-03-24T00:21:01.622Z,90.68
2018-03-24T00:23:29.207Z,90.97
2018-03-24T00:25:56.799Z,90.43
2018-03-24T00:28:24.435Z,89.94
2018-03-24T00:30:52.027Z,90.28
2018-03-24T00:33:19.622Z,90.67
2018-03-24T00:35:47.250Z,90.77
2018-03-24T00:38:14.841Z,90.99
2018-03-24T00:40:42.425Z,91.04
2018-03-24T00:43:10.050Z,90.87
2018-03-24T00:45:37.708Z,90.92
2018-03-24T00:48:05.291Z,90.91
2018-03-24T00:50:32.914Z,90.24
2018-03-24T00:53:00.507Z,90.32
2018-03-24T00:55:28.086Z,89.97
2018-03-24T00:57:55.706Z,89.67
2018-03-24T01:00:23.414Z,89.98
2018-03-24T01:02:50.994Z,90.11
2018-03-24T01:05:18.735Z,90.74
2018-03-24T01:07:46.315Z,90.85
2018-03-24T01:10:13.897Z,90.99
2018-03-24T01:12:41.720Z,91.14
2018-03-24T01:15:09.308Z,91.52
2018-03-24T01:17:37.047Z,91.61
2018-03-24T01:20:04.666Z,91.52
2018-03-24T01:22:32.362Z,91.72
2018-03-24T01:25:00.027Z,92.18
2018-03-24T01:27:27.646Z,92.31
2018-03-24T01:29:55.232Z,92.28
2018-03-24T01:32:22.822Z,92.20
2018-03-24T01:34:50.458Z,92.66
2018-03-24T01:37:18.041Z,92.62
2018-03-24T01:39:45.621Z,93.03
2018-03-24T01:42:13.242Z,93.31
2018-03-24T01:44:40.834Z,93.11
2018-03-24T01:47:08.412Z,93.10
2018-03-24T01:49:36.021Z,93.15
2018-03-24T01:52:03.623Z,94.27
2018-03-24T01:54:31.212Z,94.22
2018-03-24T01:56:58.874Z,94.32
2018-03-24T01:59:26.490Z,94.24
2018-03-24T02:01:54.209Z,93.89
2018-03-24T02:04:21.997Z,93.84
2018-03-24T02:06:49.587Z,93.50
2018-03-24T02:09:17.325Z,93.39
2018-03-24T02:11:44.994Z,93.29
2018-03-24T02:14:12.586Z,93.49
2018-03-24T02:16:40.168Z,93.35
2018-03-24T02:19:07.807Z,93.20
2018-03-24T02:21:35.969Z,92.89
2018-03-24T02:24:03.549Z,92.77
2018-03-24T02:26:31.181Z,92.72
2018-03-24T02:28:58.889Z,92.45
2018-03-24T02:31:26.480Z,92.51
2018-03-24T02:33:54.142Z,93.10
2018-03-24T02:36:21.735Z,93.28
2018-03-24T02:38:49.323Z,93.33
2018-03-24T02:41:16.948Z,93.24
2018-03-24T02:43:44.542Z,93.11
2018-03-24T02:46:12.137Z,92.97
2018-03-24T02:48:39.759Z,92.96
2018-03-24T02:51:07.340Z,92.59
2018-03-24T02:53:35.045Z,92.01
2018-03-24T02:56:02.662Z,92.08
2018-03-24T02:58:30.380Z,92.53
2018-03-24T03:00:57.966Z,92.61
2018-03-24T03:03:25.583Z,92.89
2018-03-24T03:05:53.397Z,92.93
2018-03-24T03:08:20.979Z,92.68
2018-03-24T03:10:48.611Z,92.72
2018-03-24T03:13:16.239Z,92.80
2018-03-24T03:15:43.825Z,92.70
2018-03-24T03:18:11.446Z,92.56
2018-03-24T03:20:39.039Z,92.60
2018-03-24T03:23:06.618Z,92.65
2018-03-24T03:25:34.238Z,92.79
2018-03-24T03:28:01.885Z,92.70
2018-03-24T03:30:32.266Z,92.76
2018-03-24T03:33:00.315Z,92.72
2018-03-24T03:35:28.145Z,92.69
2018-03-24T03:37:55.746Z,92.74
2018-03-24T03:40:23.378Z,92.41
2018-03-24T03:42:50.962Z,92.13
2018-03-24T03:45:18.626Z,92.60
2018-03-24T03:47:46.288Z,92.60
2018-03-24T03:50:14.155Z,92.54
2018-03-24T03:52:41.733Z,92.04
2018-03-24T03:55:09.348Z,91.94
2018-03-24T03:57:37.130Z,91.75
2018-03-24T04:00:04.909Z,91.78
2018-03-24T04:02:32.674Z,91.77
2018-03-24T04:05:00.322Z,91.84
2018-03-24T04:07:27.981Z,92.07
2018-03-24T04:09:55.618Z,92.01
2018-03-24T04:12:23.205Z,92.11
2018-03-24T04:14:51.174Z,92.08
2018-03-24T04:17:18.789Z,92.07
2018-03-24T04:19:46.509Z,91.81
2018-03-24T04:22:14.161Z,91.59
2018-03-24T04:24:41.822Z,91.41
2018-03-24T04:27:09.407Z,91.47
2018-03-24T04:29:37.143Z,91.22
2018-03-24T04:32:04.807Z,91.10
2018-03-24T04:34:32.391Z,90.69
2018-03-24T04:37:00.208Z,90.92
2018-03-24T04:39:27.830Z,91.05
2018-03-24T04:41:55.418Z,91.15
2018-03-24T04:44:23.003Z,91.33
2018-03-24T04:46:50.611Z,91.08
2018-03-24T04:49:18.214Z,90.77
2018-03-24T04:51:45.811Z,90.75
2018-03-24T04:54:13.430Z,90.83
2018-03-24T04:56:41.015Z,90.42
2018-03-24T04:59:08.599Z,90.37
2018-03-24T05:01:36.219Z,89.49
2018-03-24T05:04:03.800Z,89.19
2018-03-24T05:06:31.377Z,88.73
2018-03-24T05:08:58.994Z,87.99
2018-03-24T05:11:26.579Z,87.63
2018-03-24T05:13:54.166Z,85.91
2018-03-24T05:16:21.777Z,85.39
2018-03-24T05:18:49.358Z,85.91
2018-03-24T05:21:16.954Z,85.83
2018-03-24T05:23:44.633Z,85.70
2018-03-24T05:26:12.208Z,84.43
2018-03-24T05:28:39.805Z,83.81
2018-03-24T05:31:07.414Z,82.60
2018-03-24T05:33:35.011Z,82.58
2018-03-24T05:36:02.603Z,83.16
2018-03-24T05:38:30.212Z,83.26
2018-03-24T05:40:57.790Z,83.82
2018-03-24T05:43:25.382Z,83.62
2018-03-24T05:45:53.022Z,82.54
2018-03-24T05:48:20.608Z,82.11
2018-03-24T05:50:48.195Z,81.72
2018-03-24T05:53:15.812Z,81.43
2018-03-24T05:55:43.401Z,80.89
2018-03-24T05:58:11.013Z,82.14
2018-03-24T06:00:38.633Z,81.44
2018-03-24T06:03:06.219Z,81.33
2018-03-24T06:05:33.797Z,80.65
2018-03-24T06:08:01.426Z,80.68
2018-03-24T06:10:29.055Z,79.86
2018-03-24T06:12:56.637Z,79.43
2018-03-24T06:15:24.254Z,78.63
2018-03-24T06:17:51.846Z,77.46
2018-03-24T06:20:19.428Z,77.10
2018-03-24T06:22:47.050Z,76.28
2018-03-24T06:25:14.639Z,76.02
2018-03-24T06:27:42.249Z,75.35
2018-03-24T06:33:10.194Z,75.48
2018-03-24T06:35:37.860Z,75.54
2018-03-24T06:38:05.462Z,74.97
2018-03-24T06:40:33.058Z,74.26
2018-03-24T06:43:00.811Z,75.10
2018-03-24T06:45:28.390Z,75.84
2018-03-24T06:47:55.965Z,74.72
2018-03-24T06:50:23.583Z,73.59
2018-03-24T06:52:51.251Z,72.50
2018-03-24T06:55:18.847Z,71.80
2018-03-24T06:57:46.583Z,69.59
2018-03-24T07:00:14.178Z,69.41
2018-03-24T07:02:41.906Z,69.97
2018-03-24T07:05:09.535Z,68.12
2018-03-24T07:07:37.117Z,68.57
2018-03-24T07:10:04.695Z,65.79
2018-03-24T07:12:32.359Z,64.87
2018-03-24T07:15:00.015Z,67.49
2018-03-24T07:17:27.595Z,67.39
2018-03-24T07:19:55.206Z,67.48
2018-03-24T07:22:22.792Z,64.77
2018-03-24T07:24:50.672Z,64.38
2018-03-24T07:27:18.401Z,63.84
2018-03-24T07:29:45.991Z,63.43
2018-03-24T07:32:13.653Z,70.55
2018-03-24T07:34:41.292Z,70.62
2018-03-24T07:37:08.879Z,66.87
2018-03-24T07:39:36.473Z,65.16
2018-03-24T07:42:04.093Z,63.62
2018-03-24T07:44:31.761Z,63.85
2018-03-24T07:46:59.349Z,63.08
2018-03-24T07:49:27.084Z,62.41
2018-03-24T07:51:54.669Z,62.37
2018-03-24T07:54:22.409Z,62.60
2018-03-24T07:56:50.017Z,64.35
2018-03-24T07:59:17.717Z,62.74
2018-03-24T08:01:45.568Z,64.27
2018-03-24T08:04:13.314Z,66.65
2018-03-24T08:06:40.879Z,63.72
2018-03-24T08:09:08.473Z,64.07
2018-03-24T08:11:36.174Z,62.85
2018-03-24T08:14:03.763Z,61.07
2018-03-24T08:16:31.358Z,61.39
2018-03-24T08:18:58.974Z,60.51
2018-03-24T08:21:26.562Z,59.72
2018-03-24T08:23:54.149Z,58.23
2018-03-24T08:26:21.759Z,58.23
2018-03-24T08:28:49.360Z,59.03
2018-03-24T08:31:16.938Z,59.25
2018-03-24T08:33:44.545Z,58.05
2018-03-24T08:36:12.127Z,60.10
2018-03-24T08:38:39.697Z,59.79
2018-03-24T08:41:07.320Z,61.90
2018-03-24T08:43:34.899Z,64.70
2018-03-24T08:46:02.522Z,64.66
2018-03-24T08:48:30.147Z,64.87
2018-03-24T08:50:57.726Z,66.17
2018-03-24T08:53:25.318Z,63.67
2018-03-24T08:55:52.930Z,65.82
2018-03-24T08:58:20.542Z,66.46
2018-03-24T09:00:48.126Z,67.12
2018-03-24T09:03:15.735Z,68.04
2018-03-24T09:05:43.333Z,68.44
2018-03-24T09:08:10.924Z,68.29
2018-03-24T09:10:38.561Z,66.32
2018-03-24T09:13:06.183Z,65.87
2018-03-24T09:15:33.775Z,66.86
2018-03-24T09:18:01.571Z,66.92
2018-03-24T09:20:29.153Z,67.19
2018-03-24T09:22:56.757Z,67.84
2018-03-24T09:25:24.418Z,66.67
2018-03-24T09:27:52.013Z,67.01
2018-03-24T09:30:19.595Z,67.06
2018-03-24T09:32:47.261Z,65.80
2018-03-24T09:35:14.850Z,63.51
2018-03-24T09:37:42.841Z,64.64
2018-03-24T09:40:10.536Z,62.35
2018-03-24T09:42:38.124Z,60.91
2018-03-24T09:45:05.743Z,61.15
2018-03-24T09:47:33.367Z,63.56
2018-03-24T09:50:00.951Z,64.69
2018-03-24T09:52:28.524Z,65.19
2018-03-24T09:54:56.131Z,65.54
2018-03-24T09:57:23.711Z,62.31
2018-03-24T09:59:51.285Z,62.99
2018-03-24T10:02:18.896Z,62.60
2018-03-24T10:04:46.472Z,59.30
2018-03-24T10:07:14.040Z,59.23
2018-03-24T10:09:41.662Z,57.70
2018-03-24T10:12:09.446Z,58.08
2018-03-24T10:14:37.032Z,58.63
2018-03-24T10:17:04.666Z,56.79
2018-03-24T10:19:32.255Z,55.97
2018-03-24T10:25:03.833Z,52.98
2018-03-24T10:27:31.445Z,52.90
2018-03-24T10:29:59.694Z,53.40
2018-03-24T10:32:28.193Z,53.21
2018-03-24T10:35:02.028Z,53.59
2018-03-24T10:37:31.864Z,53.61
2018-03-24T10:40:00.515Z,56.48
2018-03-24T10:42:29.820Z,56.59
2018-03-24T10:44:59.744Z,58.91
2018-03-24T10:47:28.732Z,58.40
2018-03-24T10:49:56.509Z,59.74
2018-03-24T10:52:24.098Z,60.71
2018-03-24T10:54:51.666Z,61.21
2018-03-24T10:57:19.271Z,60.82
2018-03-24T10:59:46.873Z,61.29
2018-03-24T11:02:14.540Z,59.38
2018-03-24T11:04:42.154Z,60.29
2018-03-24T11:07:09.751Z,60.88
2018-03-24T11:09:37.333Z,60.20
2018-03-24T11:12:04.928Z,62.66
2018-03-24T11:14:32.517Z,60.96
2018-03-24T11:17:00.084Z,62.38
2018-03-24T11:19:27.781Z,62.46
2018-03-24T11:21:55.345Z,60.81
2018-03-24T11:24:22.913Z,60.11
2018-03-24T11:26:50.725Z,59.80
2018-03-24T11:29:18.307Z,59.89
2018-03-24T11:31:45.927Z,61.07
2018-03-24T11:34:13.548Z,63.18
2018-03-24T11:36:41.147Z,62.38
2018-03-24T11:39:08.814Z,62.54
2018-03-24T11:41:36.433Z,62.87
2018-03-24T11:44:04.006Z,63.97
2018-03-24T11:46:31.584Z,63.64
2018-03-24T11:48:59.176Z,67.17
2018-03-24T11:51:26.743Z,62.43
2018-03-24T11:53:54.341Z,61.88
2018-03-24T11:56:21.941Z,65.65
2018-03-24T11:58:49.810Z,65.38
2018-03-24T12:01:17.493Z,64.12
2018-03-24T12:03:45.126Z,66.07
2018-03-24T12:06:12.709Z,65.18
2018-03-24T12:08:40.268Z,65.63
2018-03-24T12:11:07.875Z,65.06
2018-03-24T12:13:35.480Z,64.29
2018-03-24T12:16:03.304Z,64.05
2018-03-24T12:18:31.115Z,63.50
2018-03-24T12:20:58.708Z,63.52
2018-03-24T12:23:26.296Z,63.58
2018-03-24T12:25:53.901Z,63.73
2018-03-24T12:28:21.483Z,61.96
2018-03-24T12:30:49.057Z,61.50
2018-03-24T12:33:16.672Z,63.98
2018-03-24T12:35:44.244Z,61.66
2018-03-24T12:38:11.883Z,60.38
2018-03-24T12:40:39.498Z,61.47
2018-03-24T12:43:07.139Z,63.21
2018-03-24T12:45:34.746Z,62.92
2018-03-24T12:48:02.348Z,62.58
2018-03-24T12:50:29.928Z,62.50
2018-03-24T12:52:57.517Z,60.78
2018-03-24T12:55:25.279Z,61.13
2018-03-24T12:57:52.962Z,62.64
2018-03-24T13:00:20.528Z,62.67
2018-03-24T13:02:48.170Z,64.41
2018-03-24T13:05:15.757Z,64.58
2018-03-24T13:07:43.337Z,63.34
2018-03-24T13:10:10.963Z,64.59
2018-03-24T13:12:38.538Z,63.44
2018-03-24T13:15:06.105Z,63.22
2018-03-24T13:17:33.734Z,63.68
2018-03-24T13:20:01.350Z,64.75
2018-03-24T13:22:28.919Z,65.59
2018-03-24T13:24:56.525Z,65.49
2018-03-24T13:27:24.094Z,65.68
2018-03-24T13:29:51.679Z,64.81
2018-03-24T13:32:19.280Z,65.18
2018-03-24T13:34:46.859Z,63.61
2018-03-24T13:37:14.417Z,64.42
2018-03-24T13:39:42.018Z,63.28
2018-03-24T13:42:10.036Z,63.36
2018-03-24T13:44:37.614Z,64.41
2018-03-24T13:47:05.362Z,64.08
2018-03-24T13:49:32.941Z,65.01
2018-03-24T13:52:00.601Z,67.78
2018-03-24T13:54:28.209Z,67.59
2018-03-24T13:56:55.778Z,67.48
2018-03-24T13:59:23.364Z,66.46
2018-03-24T14:01:50.976Z,67.60
2018-03-24T14:04:18.548Z,67.64
2018-03-24T14:06:46.113Z,68.02
2018-03-24T14:09:13.725Z,68.55
2018-03-24T14:11:41.302Z,68.23
2018-03-24T14:14:08.875Z,68.96
2018-03-24T14:16:36.484Z,69.82
2018-03-24T14:19:04.049Z,70.44
2018-03-24T14:21:31.653Z,71.80
2018-03-24T14:23:59.262Z,71.00
2018-03-24T14:26:26.842Z,71.27
2018-03-24T14:28:54.417Z,72.43
2018-03-24T14:31:22.026Z,73.01
2018-03-24T14:33:49.607Z,73.55
2018-03-24T14:36:17.183Z,73.08
2018-03-24T14:38:44.785Z,74.97
2018-03-24T14:41:12.446Z,75.04
2018-03-24T14:43:40.038Z,74.86
2018-03-24T14:46:07.956Z,74.13
2018-03-24T14:48:35.530Z,73.98
2018-03-24T14:51:03.119Z,75.18
2018-03-24T14:53:30.726Z,74.69
2018-03-24T14:55:58.310Z,74.10
2018-03-24T14:58:25.899Z,73.71
2018-03-24T15:00:53.522Z,74.54
2018-03-24T15:03:21.288Z,73.91
2018-03-24T15:05:48.877Z,73.37
2018-03-24T15:08:16.488Z,74.73
2018-03-24T15:10:44.088Z,74.81
2018-03-24T15:13:11.662Z,75.41
2018-03-24T15:15:39.270Z,76.38
2018-03-24T15:18:06.860Z,77.12
2018-03-24T15:20:34.471Z,77.76
2018-03-24T15:23:02.135Z,78.20
2018-03-24T15:25:29.770Z,78.84
2018-03-24T15:27:57.341Z,77.83
2018-03-24T15:30:36.830Z,79.37
2018-03-24T15:33:15.965Z,77.98
2018-03-24T15:35:55.218Z,78.66
2018-03-24T15:38:22.800Z,80.58
2018-03-24T15:40:50.382Z,80.52
2018-03-24T15:43:17.999Z,80.50
2018-03-24T15:45:45.589Z,81.03
2018-03-24T15:48:13.162Z,80.80
2018-03-24T15:50:40.778Z,81.62
2018-03-24T15:53:08.457Z,81.09
2018-03-24T15:55:36.016Z,81.34
2018-03-24T15:58:03.626Z,82.42
2018-03-24T16:00:31.214Z,82.27
2018-03-24T16:02:58.790Z,82.45
2018-03-24T16:05:26.395Z,81.31
2018-03-24T16:07:53.959Z,82.54
2018-03-24T16:10:21.578Z,83.06
2018-03-24T16:12:49.192Z,83.24
2018-03-24T16:15:16.827Z,83.47
2018-03-24T16:17:44.466Z,84.18
2018-03-24T16:20:12.066Z,84.76
2018-03-24T16:22:39.635Z,84.85
2018-03-24T16:25:07.208Z,84.04
2018-03-24T16:27:34.867Z,83.90
2018-03-24T16:30:02.454Z,84.25
2018-03-24T16:32:30.033Z,84.64
2018-03-24T16:34:57.635Z,85.36
2018-03-24T16:37:25.212Z,85.22
2018-03-24T16:39:52.859Z,84.80
2018-03-24T16:42:20.479Z,85.20
2018-03-24T16:44:48.053Z,85.97
2018-03-24T16:47:15.630Z,86.34
2018-03-24T16:49:43.231Z,86.24
2018-03-24T16:52:10.846Z,86.46
2018-03-24T16:54:38.416Z,86.65
2018-03-24T16:57:06.021Z,86.87
2018-03-24T16:59:33.583Z,86.72
2018-03-24T17:02:01.157Z,87.35
2018-03-24T17:04:28.802Z,87.39
2018-03-24T17:06:56.406Z,88.42
2018-03-24T17:09:23.986Z,89.08
2018-03-24T17:11:51.612Z,90.44
2018-03-24T17:14:19.199Z,90.67
2018-03-24T17:16:46.811Z,90.24
2018-03-24T17:19:14.426Z,90.16
2018-03-24T17:21:42.013Z,89.25
2018-03-24T17:24:09.597Z,89.43
2018-03-24T17:26:37.193Z,88.84
2018-03-24T17:29:04.773Z,88.88
2018-03-24T17:31:32.358Z,88.69
2018-03-24T17:33:59.962Z,88.73
2018-03-24T17:36:27.552Z,89.25
2018-03-24T17:38:55.146Z,89.98
2018-03-24T17:41:22.761Z,89.33
2018-03-24T17:43:50.343Z,88.83
2018-03-24T17:46:17.908Z,87.92
2018-03-24T17:48:45.524Z,88.38
2018-03-24T17:51:13.089Z,89.38
2018-03-24T17:53:40.672Z,89.44
2018-03-24T17:56:08.286Z,89.79
2018-03-24T17:58:35.860Z,90.01
2018-03-24T18:01:03.430Z,89.91
2018-03-24T18:03:31.050Z,89.79
2018-03-24T18:05:58.617Z,89.92
2018-03-24T18:08:26.184Z,89.98
2018-03-24T18:10:53.786Z,90.24
2018-03-24T18:13:22.261Z,90.16
2018-03-24T18:15:49.837Z,90.28
2018-03-24T18:18:17.445Z,90.23
2018-03-24T18:20:45.022Z,90.57
2018-03-24T18:23:12.600Z,90.18
2018-03-24T18:25:40.218Z,90.47
2018-03-24T18:28:07.860Z,90.38
2018-03-24T18:30:35.410Z,90.33
2018-03-24T18:33:03.034Z,90.30
2018-03-24T18:35:30.614Z,89.59
2018-03-24T18:37:58.181Z,89.48
2018-03-24T18:40:25.801Z,89.63
2018-03-24T18:42:53.370Z,90.43
2018-03-24T18:45:20.959Z,90.78
2018-03-24T18:47:48.571Z,90.49
2018-03-24T18:50:16.139Z,90.20
2018-03-24T18:52:43.709Z,90.35
2018-03-24T18:55:11.310Z,90.53
2018-03-24T18:57:38.894Z,90.34
2018-03-24T19:00:06.482Z,90.04
2018-03-24T19:02:34.081Z,88.62
2018-03-24T19:05:01.661Z,87.53
2018-03-24T19:07:29.231Z,87.10
2018-03-24T19:09:56.882Z,87.37
2018-03-24T19:12:24.446Z,88.33
2018-03-24T19:14:52.185Z,88.62
2018-03-24T19:17:19.792Z,88.81
2018-03-24T19:19:47.367Z,89.11
2018-03-24T19:22:14.926Z,89.33
2018-03-24T19:24:42.533Z,89.19
2018-03-24T19:27:10.111Z,88.93
2018-03-24T19:29:37.680Z,88.69
2018-03-24T19:32:05.282Z,88.94
2018-03-24T19:34:32.859Z,89.31
2018-03-24T19:37:00.434Z,89.23
2018-03-24T19:39:28.088Z,88.23
2018-03-24T19:41:55.650Z,88.33
2018-03-24T19:44:23.230Z,88.53
2018-03-24T19:46:50.829Z,88.58
2018-03-24T19:49:18.389Z,88.12
2018-03-24T19:51:45.969Z,88.41
2018-03-24T19:54:13.573Z,88.19
2018-03-24T19:56:41.137Z,87.54
2018-03-24T19:59:08.717Z,87.17
2018-03-24T20:01:36.475Z,87.39
2018-03-24T20:04:04.049Z,87.64
2018-03-24T20:06:31.626Z,87.44
2018-03-24T20:08:59.224Z,87.38
2018-03-24T20:11:26.814Z,87.46
2018-03-24T20:13:54.570Z,87.87
2018-03-24T20:16:22.174Z,88.17
2018-03-24T20:18:49.763Z,88.75
2018-03-24T20:21:17.344Z,88.75
2018-03-24T20:23:44.950Z,88.40
2018-03-24T20:26:12.535Z,87.13
2018-03-24T20:28:40.102Z,86.82
2018-03-24T20:31:07.745Z,86.76
2018-03-24T20:33:35.385Z,86.96
2018-03-24T20:36:02.963Z,87.08
2018-03-24T20:38:30.562Z,86.84
2018-03-24T20:40:58.149Z,87.40
2018-03-24T20:43:25.716Z,87.91
2018-03-24T20:45:53.320Z,88.50
2018-03-24T20:48:20.895Z,89.30
2018-03-24T20:50:48.457Z,89.90
2018-03-24T20:53:16.067Z,90.41
2018-03-24T20:55:43.639Z,90.56
2018-03-24T20:58:11.225Z,90.79
2018-03-24T21:00:38.835Z,91.36
2018-03-24T21:03:06.397Z,91.81
2018-03-24T21:05:33.965Z,91.71
2018-03-24T21:08:01.576Z,92.24
2018-03-24T21:10:29.144Z,92.74
2018-03-24T21:12:56.723Z,92.88
2018-03-24T21:15:24.320Z,92.98
2018-03-24T21:17:51.876Z,93.12
2018-03-24T21:20:19.445Z,92.87
2018-03-24T21:22:47.054Z,92.52
2018-03-24T21:25:14.639Z,92.57
2018-03-24T21:27:42.212Z,92.47
2018-03-24T21:30:09.808Z,92.36
2018-03-24T21:32:37.373Z,91.95
2018-03-24T21:35:04.953Z,92.12
2018-03-24T21:37:32.577Z,92.49
2018-03-24T21:40:00.149Z,92.86
2018-03-24T21:42:27.735Z,92.80
2018-03-24T21:44:55.350Z,92.79
2018-03-24T21:47:22.918Z,92.62
2018-03-24T21:49:50.492Z,92.75
2018-03-24T21:52:18.096Z,92.56
2018-03-24T21:54:45.686Z,92.73
2018-03-24T21:57:13.262Z,92.88
2018-03-24T21:59:40.884Z,93.16
2018-03-24T22:02:08.444Z,93.25
2018-03-24T22:04:36.017Z,93.21
2018-03-24T22:07:03.651Z,92.90
2018-03-24T22:09:31.220Z,92.86
2018-03-24T22:11:58.801Z,92.93
2018-03-24T22:14:26.399Z,92.96
2018-03-24T22:16:53.982Z,92.57
2018-03-24T22:19:21.562Z,92.80
2018-03-24T22:21:49.176Z,92.77
2018-03-24T22:24:16.737Z,92.59
2018-03-24T22:26:44.298Z,92.55
2018-03-24T22:29:11.915Z,92.55
2018-03-24T22:31:39.497Z,92.78
2018-03-24T22:34:07.074Z,92.77
2018-03-24T22:36:34.681Z,92.80
2018-03-24T22:39:02.263Z,92.92
2018-03-24T22:41:29.826Z,92.87
2018-03-24T22:43:57.437Z,92.83
2018-03-24T22:46:25.007Z,92.68
2018-03-24T22:48:52.575Z,92.59
2018-03-24T22:51:20.244Z,92.46
2018-03-24T22:53:47.864Z,92.55
2018-03-24T22:56:15.424Z,92.46
2018-03-24T22:58:43.014Z,92.69
2018-03-24T23:01:10.606Z,92.87
2018-03-24T23:03:38.186Z,92.95
2018-03-24T23:06:05.773Z,92.94
2018-03-24T23:08:33.342Z,93.62
2018-03-24T23:11:00.900Z,93.66
2018-03-24T23:13:28.503Z,93.63
2018-03-24T23:15:56.072Z,93.71
2018-03-24T23:18:23.644Z,94.02
2018-03-24T23:20:51.230Z,94.18
2018-03-24T23:23:18.803Z,94.11
2018-03-24T23:25:46.377Z,94.31
2018-03-24T23:28:13.976Z,94.60
2018-03-24T23:30:41.554Z,94.49
2018-03-24T23:33:09.126Z,94.62
2018-03-24T23:35:36.726Z,95.00
2018-03-24T23:38:04.284Z,95.25
2018-03-24T23:40:31.848Z,95.61
2018-03-24T23:42:59.442Z,96.02
2018-03-24T23:45:27.009Z,96.13
2018-03-24T23:47:54.581Z,96.13
2018-03-24T23:50:22.169Z,96.27
2018-03-24T23:52:49.763Z,96.50
2018-03-24T23:55:17.331Z,96.73
2018-03-24T23:57:44.925Z,96.68
